OMDBOTBD

Guest
Details From OMDB - Dubai Intl
To OTBD - Doha Intl
Flight Number -
Tags Generated
Created
Modified
Stats Distance 206 nm / 381 km
Max Altitude 0 ft / 0 m
Waypoints 2
Social Downloads 4
Likes 0
Share VATSIM

Download

Looking for another format? Having issues loading an existing format? Contact us
Advertisement - Login to hide

Notes

Generated

Route

OMDB OTBD

ID Type Via Altitude Latitude Longitude Leg Dist Tot Dist Heading (true) Name
O OMDB APT - 0 ft / 0 m 25.26213˚ 55.34757˚ - 0 nm - -
O OTBD APT - 0 ft / 0 m 25.28022˚ 51.55653˚ 205 nm 205 nm 271° / 269° -

Altitude Profile

Advertisement - Login to hide

Weather


0- 5 10 15 20 25 30 35+ Temperature / ° C

Clouds and Precipitation
Forecast for 2018-05-27 00:00 UTC. Updated 40 minutes ago

Ground ~20,000 ft ~40,000 ft Winds

OMDB

Details ICAO OMDB (DXB)
Name DUBAI INTL
Region United Arab Emirates
Timezone Asia/Dubai (UTC+4.0)
Stats Elevation 62 ft / 19 m (AMSL)
Location 25.254912° 55.364260°
Runways 2
Magnetic Variation 2.068° E

METAR

OMDB 270000Z 35005KT 260V040 CAVOK 32/21 Q1004 NOSIG

Decode

TAF

TAF OMDB 262307Z 2700/2806 12005KT CAVOK BECMG 2702/2704 18010KT BECMG 2708/2710 31012KT BECMG 2715/2717 12005KT BECMG 2802/2804 18010KT

Decode

Departure Runways

ID Width Length Bearing (true) Bearing (mag) Surface Threshold Offset Overrun Length
12L 197 ft / 60 m 13,124 ft / 4,000 m 121.49° 119.42° Asphalt 1,312 ft / 400 m 395 ft / 120 m
12R 151 ft / 46 m 13,139 ft / 4,005 m 121.48° 119.41° Asphalt 394 ft / 120 m 197 ft / 60 m
30L 151 ft / 46 m 13,139 ft / 4,005 m 301.50° 299.43° Asphalt 2,953 ft / 900 m 197 ft / 60 m
30R 197 ft / 60 m 13,124 ft / 4,000 m 301.51° 299.44° Asphalt 0 ft / 0 m 395 ft / 120 m

OTBD

Details ICAO OTBD (DOH)
Name DOHA INTL
Region Qatar
Timezone Asia/Qatar (UTC+3.0)
Stats Elevation 35 ft / 11 m (AMSL)
Location 25.261056° 51.564999°
Runways 1
Magnetic Variation 2.502° E

METAR

OTBD 270000Z 35003KT 9000 NSC 31/20 Q1004 NOSIG

Decode

TAF

TAF OTBD 262303Z 2700/2806 36005KT CAVOK TEMPO 2702/2707 27005KT BECMG 2708/2710 13010KT

Decode

Destination Runways

ID Width Length Bearing (true) Bearing (mag) Surface Threshold Offset Overrun Length
16 151 ft / 46 m 15,065 ft / 4,592 m 158.20° 155.70° Asphalt 2,460 ft / 750 m 98 ft / 30 m
34 151 ft / 46 m 15,065 ft / 4,592 m 338.21° 335.71° Asphalt 0 ft / 0 m 460 ft / 140 m

Approach Navaids

Runway Type Ident Frequency Range Bearing (true) Bearing (mag) Slope Elevation
34 Localiser IBD 109.50 MHz 18 nm / 33 km 338.32° 335.82° - 38 ft / 12 m (AMSL)
34 Glidescope IBD 109.50 MHz 10 nm / 19 km 338.21° 335.71° 3.00° 35 ft / 11 m (AMSL)
34 DME IBD 109.50 MHz 18 nm / 33 km - - - 35 ft / 11 m (AMSL)

Popular Alternatives